Time;durP1;ratioP1;P1;durP2;ratioP2;P2;SDS_P1;SDS_P2;PMS_P1;PMS_P2;Temp;Humidity;BMP_temperature;BMP_pressure;BME280_temperature;BME280_humidity;BME280_pressure;Samples;Min_cycle;Max_cycle;Signal;HPM_P1;HPM_P2
2022/07/22 00:00:00;;;;;;;13.65;5.97;;;19.70;99.90;;;;;;5079244;28;20021;-71
2022/07/22 00:02:26;;;;;;;9.15;5.43;;;19.60;99.90;;;;;;5085580;28;20044;-69
2022/07/22 00:04:51;;;;;;;12.40;6.22;;;19.60;99.90;;;;;;5084616;28;20127;-71
2022/07/22 00:07:17;;;;;;;8.55;6.38;;;19.70;99.90;;;;;;5081917;28;20074;-71
2022/07/22 00:09:43;;;;;;;9.90;6.07;;;19.70;99.90;;;;;;5085133;28;20721;-71
2022/07/22 00:12:08;;;;;;;10.38;5.72;;;19.70;99.90;;;;;;5080893;28;20021;-71
2022/07/22 00:14:34;;;;;;;13.60;6.20;;;19.70;99.90;;;;;;5089326;28;20066;-71
2022/07/22 00:17:00;;;;;;;13.15;5.88;;;19.70;99.90;;;;;;5087267;28;20024;-72
2022/07/22 00:19:26;;;;;;;18.02;6.38;;;19.50;99.90;;;;;;5079642;28;20056;-72
2022/07/22 00:21:52;;;;;;;11.90;6.25;;;19.50;99.90;;;;;;5081132;28;20063;-71
2022/07/22 00:24:18;;;;;;;16.38;6.07;;;19.50;99.90;;;;;;5087800;28;20024;-72
2022/07/22 00:26:43;;;;;;;13.77;6.80;;;19.60;99.90;;;;;;5080871;28;20040;-70
2022/07/22 00:29:09;;;;;;;17.13;7.22;;;19.50;99.90;;;;;;5084802;28;20048;-71
2022/07/22 00:31:35;;;;;;;13.52;6.18;;;19.60;99.90;;;;;;5086225;28;20106;-71
2022/07/22 00:34:01;;;;;;;14.35;6.68;;;19.50;99.90;;;;;;5085420;28;20083;-70
2022/07/22 00:36:29;;;;;;;11.82;6.75;;;19.50;99.90;;;;;;5084277;28;20024;-72
2022/07/22 00:38:54;;;;;;;15.23;7.47;;;19.60;99.90;;;;;;5087885;28;20025;-71
2022/07/22 00:41:20;;;;;;;11.38;7.03;;;19.60;99.90;;;;;;5082638;28;20021;-72
2022/07/22 00:43:59;;;;;;;15.02;7.13;;;19.70;99.90;;;;;;5080929;28;20028;-71
2022/07/22 00:46:26;;;;;;;13.23;7.80;;;19.60;99.90;;;;;;5085395;28;20474;-71
2022/07/22 00:48:52;;;;;;;13.05;6.55;;;19.60;99.90;;;;;;5085429;28;20020;-71
2022/07/22 00:51:19;;;;;;;15.07;6.68;;;19.40;99.90;;;;;;5085358;28;20020;-71
2022/07/22 00:53:46;;;;;;;13.73;7.50;;;19.30;99.90;;;;;;5089202;28;20076;-71
2022/07/22 00:56:12;;;;;;;13.68;7.75;;;19.30;99.90;;;;;;5087736;28;20409;-71
2022/07/22 00:58:38;;;;;;;11.75;7.40;;;19.40;99.90;;;;;;5090423;28;20033;-71
2022/07/22 01:01:04;;;;;;;15.40;7.43;;;19.30;99.90;;;;;;5084709;28;20091;-71
2022/07/22 01:03:30;;;;;;;12.40;7.03;;;19.20;99.90;;;;;;5088689;28;20369;-72
2022/07/22 01:05:56;;;;;;;19.30;7.65;;;19.30;99.90;;;;;;5085806;28;20514;-71
2022/07/22 01:08:22;;;;;;;11.40;6.97;;;19.30;99.90;;;;;;5080713;28;20045;-72
2022/07/22 01:10:47;;;;;;;18.30;7.57;;;19.40;99.90;;;;;;5084143;28;20064;-72
2022/07/22 01:13:13;;;;;;;11.80;7.60;;;19.30;99.90;;;;;;5086959;28;20020;-71
2022/07/22 01:15:39;;;;;;;12.77;7.40;;;19.30;99.90;;;;;;5085905;28;20155;-70
2022/07/22 01:18:04;;;;;;;16.60;7.75;;;19.20;99.90;;;;;;5087327;28;20469;-71
2022/07/22 01:20:31;;;;;;;16.60;8.32;;;19.30;99.90;;;;;;5085805;28;20012;-71
2022/07/22 01:22:57;;;;;;;18.65;8.02;;;19.40;99.90;;;;;;5086340;28;20111;-71
2022/07/22 01:25:22;;;;;;;18.58;7.90;;;19.40;99.90;;;;;;5088311;28;20115;-71
2022/07/22 01:27:49;;;;;;;14.32;7.22;;;19.30;99.90;;;;;;5089145;28;20031;-71
2022/07/22 01:30:15;;;;;;;12.40;7.45;;;19.30;99.90;;;;;;5087795;28;20016;-70
2022/07/22 01:32:41;;;;;;;15.20;7.30;;;19.40;99.90;;;;;;5086040;28;20473;-71
2022/07/22 01:35:07;;;;;;;18.60;7.82;;;19.40;99.90;;;;;;5087167;28;20031;-71
2022/07/22 01:37:36;;;;;;;12.23;7.47;;;19.50;99.90;;;;;;5088769;28;20480;-71
2022/07/22 01:40:02;;;;;;;12.55;7.35;;;19.40;99.90;;;;;;5090078;28;20103;-71
2022/07/22 01:42:28;;;;;;;14.00;7.40;;;19.40;99.90;;;;;;5090801;28;20017;-71
2022/07/22 01:44:54;;;;;;;14.40;7.68;;;19.50;99.90;;;;;;5086631;28;20609;-71
2022/07/22 01:47:19;;;;;;;11.85;6.22;;;19.40;99.90;;;;;;5085795;28;20024;-71
2022/07/22 01:49:45;;;;;;;13.35;6.93;;;19.40;99.90;;;;;;5082579;28;20032;-71
2022/07/22 01:52:11;;;;;;;16.45;7.28;;;19.40;99.90;;;;;;5082725;28;20032;-71
2022/07/22 01:54:37;;;;;;;18.15;7.65;;;19.40;99.90;;;;;;5083845;28;20036;-71
2022/07/22 01:57:02;;;;;;;16.27;7.72;;;19.30;99.90;;;;;;5087924;28;20032;-71
2022/07/22 01:59:28;;;;;;;18.30;7.85;;;19.40;99.90;;;;;;5080318;28;20096;-71
2022/07/22 02:01:54;;;;;;;19.35;8.45;;;19.40;99.90;;;;;;5081428;28;20025;-71
2022/07/22 02:04:20;;;;;;;15.00;8.32;;;19.40;99.90;;;;;;5088078;28;20033;-72
2022/07/22 02:06:46;;;;;;;13.20;7.80;;;19.50;99.90;;;;;;5080730;28;20043;-71
2022/07/22 02:09:12;;;;;;;13.40;8.75;;;19.50;99.90;;;;;;5085299;28;20020;-71
2022/07/22 02:11:37;;;;;;;18.52;8.93;;;19.50;99.90;;;;;;5088308;28;20028;-72
2022/07/22 02:14:03;;;;;;;15.23;8.77;;;19.50;99.90;;;;;;5081458;28;20404;-71
2022/07/22 02:16:29;;;;;;;21.00;9.27;;;19.50;99.90;;;;;;5086508;28;20773;-71
2022/07/22 02:18:55;;;;;;;22.15;9.27;;;19.50;99.90;;;;;;5083187;28;20040;-71
2022/07/22 02:21:21;;;;;;;15.70;9.13;;;19.50;99.90;;;;;;5084081;28;20020;-71
2022/07/22 02:23:47;;;;;;;19.02;9.45;;;19.50;99.90;;;;;;5082097;28;20408;-71
2022/07/22 02:26:12;;;;;;;18.33;8.88;;;19.50;99.90;;;;;;5080091;28;20211;-71
2022/07/22 02:28:38;;;;;;;20.45;9.02;;;19.30;99.90;;;;;;5084676;28;20036;-71
2022/07/22 02:31:04;;;;;;;19.35;9.02;;;19.30;99.90;;;;;;5086814;28;20059;-71
2022/07/22 02:33:30;;;;;;;20.75;9.38;;;19.20;99.90;;;;;;5087282;28;20095;-71
2022/07/22 02:35:56;;;;;;;18.95;8.88;;;19.10;99.90;;;;;;5083152;28;20046;-71
2022/07/22 02:38:22;;;;;;;22.63;9.50;;;18.90;99.90;;;;;;5083740;28;20072;-71
2022/07/22 02:40:47;;;;;;;18.08;8.50;;;19.00;99.90;;;;;;5088943;28;20111;-71
2022/07/22 02:43:13;;;;;;;19.38;9.25;;;19.00;99.90;;;;;;5080358;28;20071;-70
2022/07/22 02:45:39;;;;;;;18.08;9.27;;;19.00;99.90;;;;;;5089650;28;20031;-71
2022/07/22 02:48:05;;;;;;;19.33;10.40;;;19.00;99.90;;;;;;5080709;28;20032;-71
2022/07/22 02:50:32;;;;;;;22.83;9.70;;;19.20;99.90;;;;;;5090209;28;20533;-71
2022/07/22 02:52:58;;;;;;;16.85;9.00;;;19.20;99.90;;;;;;5086433;28;20027;-71
2022/07/22 02:55:24;;;;;;;19.65;9.30;;;19.30;99.90;;;;;;5087356;28;20027;-70
2022/07/22 02:57:50;;;;;;;17.35;9.85;;;19.20;99.90;;;;;;5085764;28;20033;-71
2022/07/22 03:00:16;;;;;;;18.60;9.35;;;19.20;99.90;;;;;;5084739;28;20024;-71
2022/07/22 03:02:42;;;;;;;16.95;9.32;;;19.20;99.90;;;;;;5089105;28;20020;-71
2022/07/22 03:05:08;;;;;;;19.17;9.63;;;19.00;99.90;;;;;;5083616;28;20477;-71
2022/07/22 03:07:34;;;;;;;18.83;9.63;;;18.90;99.90;;;;;;5085580;28;20102;-71
2022/07/22 03:10:00;;;;;;;17.27;9.32;;;18.90;99.90;;;;;;5083623;28;20035;-72
2022/07/22 03:12:25;;;;;;;19.15;8.50;;;19.00;99.90;;;;;;5083691;28;20385;-71
2022/07/22 03:14:51;;;;;;;22.65;9.50;;;18.90;99.90;;;;;;5086997;28;20488;-71
2022/07/22 03:17:17;;;;;;;23.38;9.88;;;18.90;99.90;;;;;;5084550;28;20393;-71
2022/07/22 03:19:42;;;;;;;19.27;10.02;;;19.00;99.90;;;;;;5079912;28;20016;-71
2022/07/22 03:22:08;;;;;;;13.75;9.82;;;19.00;99.90;;;;;;5085887;28;20025;-70
2022/07/22 03:24:34;;;;;;;17.35;8.52;;;19.10;99.90;;;;;;5078456;28;20424;-71
2022/07/22 03:26:59;;;;;;;21.23;9.95;;;19.10;99.90;;;;;;5078854;28;20044;-71
2022/07/22 03:29:25;;;;;;;21.27;9.63;;;19.10;99.90;;;;;;5086817;28;20103;-71
2022/07/22 03:31:51;;;;;;;19.50;9.48;;;19.10;99.90;;;;;;5081339;28;20110;-71
2022/07/22 03:34:16;;;;;;;20.95;9.73;;;18.80;99.90;;;;;;5087998;28;20027;-71
2022/07/22 03:36:42;;;;;;;15.52;8.77;;;18.60;99.90;;;;;;5080891;28;20461;-71
2022/07/22 03:39:08;;;;;;;15.38;8.98;;;18.70;99.90;;;;;;5086368;28;20429;-70
2022/07/22 03:41:33;;;;;;;15.77;8.60;;;18.80;99.90;;;;;;5083153;28;20015;-71
2022/07/22 03:43:59;;;;;;;14.68;9.82;;;18.80;99.90;;;;;;5079416;28;20365;-70
2022/07/22 03:46:24;;;;;;;16.02;8.13;;;18.90;99.90;;;;;;5087425;28;20032;-71
2022/07/22 03:48:50;;;;;;;18.58;9.50;;;18.90;99.90;;;;;;5082990;28;20526;-71
2022/07/22 03:51:16;;;;;;;18.92;8.95;;;18.80;99.90;;;;;;5082451;28;20491;-71
2022/07/22 03:53:42;;;;;;;17.27;8.70;;;18.90;99.90;;;;;;5087847;28;20051;-71
2022/07/22 03:56:07;;;;;;;20.73;9.70;;;18.90;99.90;;;;;;5086629;28;20452;-71
2022/07/22 03:58:33;;;;;;;21.90;10.05;;;18.90;99.90;;;;;;5084494;28;20027;-71
2022/07/22 04:00:59;;;;;;;17.23;8.75;;;18.90;99.90;;;;;;5087332;28;20088;-70
2022/07/22 04:03:25;;;;;;;16.02;9.48;;;18.90;99.90;;;;;;5085126;28;20024;-71
2022/07/22 04:05:51;;;;;;;15.00;9.02;;;18.90;99.90;;;;;;5085841;28;20115;-71
2022/07/22 04:08:18;;;;;;;25.73;10.18;;;18.80;99.90;;;;;;5083796;28;20031;-71
2022/07/22 04:10:44;;;;;;;14.48;9.57;;;18.90;99.90;;;;;;5089722;28;20082;-71
2022/07/22 04:13:10;;;;;;;15.85;10.10;;;18.90;99.90;;;;;;5081342;28;20050;-71
2022/07/22 04:15:36;;;;;;;17.50;10.70;;;18.90;99.90;;;;;;5075236;28;20103;-71
2022/07/22 04:18:01;;;;;;;21.05;10.43;;;18.90;99.90;;;;;;5082804;28;20461;-71
2022/07/22 04:20:27;;;;;;;20.95;11.38;;;18.90;99.90;;;;;;5085302;28;20544;-73
2022/07/22 04:22:53;;;;;;;16.85;10.68;;;18.90;99.90;;;;;;5086427;28;20031;-71
2022/07/22 04:25:19;;;;;;;17.05;9.93;;;18.90;99.90;;;;;;5110611;27;20041;-71
2022/07/22 04:27:45;;;;;;;19.33;9.57;;;18.90;99.90;;;;;;5091640;28;20060;-71
2022/07/22 04:30:11;;;;;;;19.75;10.82;;;19.00;99.90;;;;;;5087485;28;20025;-71
2022/07/22 04:32:37;;;;;;;24.60;12.02;;;19.00;99.90;;;;;;5085674;28;20073;-71
2022/07/22 04:35:04;;;;;;;20.27;11.63;;;19.00;99.90;;;;;;5086960;28;20024;-70
2022/07/22 04:37:30;;;;;;;20.30;11.07;;;19.00;99.90;;;;;;5090881;28;20107;-71
2022/07/22 04:39:56;;;;;;;22.67;11.65;;;19.00;99.90;;;;;;5089833;28;20069;-71
2022/07/22 04:42:22;;;;;;;28.25;11.82;;;19.00;99.90;;;;;;5085528;28;20426;-70
2022/07/22 04:44:47;;;;;;;23.00;11.68;;;19.00;99.90;;;;;;5086729;28;20099;-70
2022/07/22 04:47:13;;;;;;;21.92;10.38;;;19.00;99.90;;;;;;5087985;28;20475;-71
2022/07/22 04:49:39;;;;;;;19.88;11.55;;;18.90;99.90;;;;;;5088728;28;20541;-71
2022/07/22 04:52:05;;;;;;;25.50;11.85;;;18.90;99.90;;;;;;5087905;28;20028;-71
2022/07/22 04:54:31;;;;;;;20.02;11.32;;;18.90;99.90;;;;;;5085794;28;20049;-70
2022/07/22 04:56:57;;;;;;;19.92;11.73;;;18.90;99.90;;;;;;5083614;28;20032;-71
2022/07/22 04:59:22;;;;;;;23.80;11.95;;;18.90;99.90;;;;;;5087786;28;20029;-71
2022/07/22 05:01:48;;;;;;;23.20;12.23;;;18.90;99.90;;;;;;5083065;28;20100;-70
2022/07/22 05:04:15;;;;;;;22.27;11.48;;;18.80;99.90;;;;;;5086338;28;20027;-70
2022/07/22 05:06:40;;;;;;;22.90;10.45;;;18.90;99.90;;;;;;5085005;28;20028;-69
2022/07/22 05:09:06;;;;;;;20.48;10.60;;;18.90;99.90;;;;;;5086281;28;20035;-71
2022/07/22 05:11:33;;;;;;;16.77;10.05;;;19.00;99.90;;;;;;5089420;28;20031;-71
2022/07/22 05:13:58;;;;;;;16.60;10.27;;;19.00;99.90;;;;;;5084977;28;20540;-71
2022/07/22 05:16:24;;;;;;;21.42;10.45;;;19.00;99.90;;;;;;5088521;28;20107;-71
2022/07/22 05:18:50;;;;;;;17.20;11.05;;;19.10;99.90;;;;;;5083186;28;20028;-71
2022/07/22 05:21:15;;;;;;;19.40;11.50;;;19.10;99.90;;;;;;5089734;28;20027;-71
2022/07/22 05:23:42;;;;;;;19.88;11.18;;;19.10;99.90;;;;;;5086413;28;20020;-71
2022/07/22 05:26:09;;;;;;;19.70;11.35;;;19.10;99.90;;;;;;5085609;28;20037;-70
2022/07/22 05:28:34;;;;;;;19.85;11.00;;;19.10;99.90;;;;;;5089091;28;20058;-71
2022/07/22 05:31:00;;;;;;;23.45;11.35;;;19.10;99.90;;;;;;5086142;28;20052;-70
2022/07/22 05:33:26;;;;;;;21.08;11.50;;;19.10;99.90;;;;;;5091443;28;20110;-71
2022/07/22 05:35:51;;;;;;;22.45;12.85;;;19.10;99.90;;;;;;5085340;28;20020;-71
2022/07/22 05:38:17;;;;;;;27.48;12.43;;;19.20;99.90;;;;;;5091140;28;20465;-70
2022/07/22 05:40:43;;;;;;;25.27;11.82;;;19.10;99.90;;;;;;5084266;28;20023;-71
2022/07/22 05:43:08;;;;;;;22.45;11.48;;;19.10;99.90;;;;;;5077683;28;20543;-71
2022/07/22 05:45:34;;;;;;;19.23;11.38;;;19.20;99.90;;;;;;5091292;28;20031;-71
2022/07/22 05:48:00;;;;;;;21.45;11.80;;;19.20;99.90;;;;;;5084441;28;20027;-71
2022/07/22 05:50:27;;;;;;;29.08;12.02;;;19.20;99.90;;;;;;5089543;28;20028;-72
2022/07/22 05:52:52;;;;;;;25.60;11.07;;;19.30;99.90;;;;;;5080977;28;20024;-70
2022/07/22 05:55:18;;;;;;;18.90;11.27;;;19.30;99.90;;;;;;5086670;28;20028;-71
2022/07/22 05:57:44;;;;;;;20.45;11.00;;;19.30;99.90;;;;;;5087876;28;20041;-71
2022/07/22 06:00:10;;;;;;;23.65;11.20;;;19.40;99.90;;;;;;5084230;28;20043;-71
2022/07/22 06:02:35;;;;;;;24.40;10.52;;;19.40;99.90;;;;;;5088734;28;20104;-70
2022/07/22 06:05:02;;;;;;;23.65;10.70;;;19.50;99.90;;;;;;5086528;28;20047;-71
2022/07/22 06:07:27;;;;;;;21.27;10.65;;;19.50;99.90;;;;;;5086816;28;20098;-71
2022/07/22 06:09:53;;;;;;;25.73;11.45;;;19.50;99.90;;;;;;5086226;28;20575;-71
2022/07/22 06:12:19;;;;;;;20.88;10.13;;;19.50;99.90;;;;;;5085970;28;20103;-71
2022/07/22 06:14:46;;;;;;;18.10;9.88;;;19.60;99.90;;;;;;5090278;28;20103;-71
2022/07/22 06:17:12;;;;;;;24.23;11.15;;;19.60;99.90;;;;;;5083139;28;20017;-72
2022/07/22 06:19:38;;;;;;;19.50;10.02;;;19.50;99.90;;;;;;5085887;28;20032;-71
2022/07/22 06:22:04;;;;;;;17.90;10.40;;;19.50;99.90;;;;;;5085557;28;20048;-71
2022/07/22 06:24:30;;;;;;;15.35;9.02;;;19.60;99.90;;;;;;5087219;28;20055;-70
2022/07/22 06:26:55;;;;;;;21.58;9.70;;;19.60;99.90;;;;;;5083978;28;20206;-72
2022/07/22 06:29:21;;;;;;;17.02;8.50;;;19.70;99.90;;;;;;5084186;28;20443;-71
2022/07/22 06:31:47;;;;;;;24.38;9.40;;;19.70;99.90;;;;;;5090700;28;20025;-72
2022/07/22 06:34:13;;;;;;;18.70;9.50;;;19.70;99.90;;;;;;5088450;28;20027;-71
2022/07/22 06:36:39;;;;;;;19.77;9.98;;;19.60;99.90;;;;;;5080615;28;20024;-70
2022/07/22 06:39:04;;;;;;;24.13;9.32;;;19.60;99.90;;;;;;5083917;28;20020;-70
2022/07/22 06:41:30;;;;;;;14.40;7.97;;;19.70;99.90;;;;;;5086225;28;20021;-71
2022/07/22 06:43:56;;;;;;;18.13;7.70;;;19.80;99.90;;;;;;5089610;28;20016;-71
2022/07/22 06:46:21;;;;;;;14.35;7.75;;;19.80;99.90;;;;;;5092728;28;20040;-71
2022/07/22 06:48:47;;;;;;;15.07;7.95;;;19.80;99.90;;;;;;5087096;28;20040;-71
2022/07/22 06:51:13;;;;;;;14.35;7.43;;;19.80;99.90;;;;;;5086917;28;20480;-71
2022/07/22 06:53:38;;;;;;;13.60;7.45;;;19.80;99.90;;;;;;5086731;28;20020;-71
2022/07/22 06:56:05;;;;;;;21.05;9.13;;;19.80;99.90;;;;;;5088072;28;20031;-71
2022/07/22 06:58:30;;;;;;;18.58;8.02;;;19.90;99.90;;;;;;5081993;28;20028;-71
2022/07/22 07:00:56;;;;;;;17.30;8.27;;;20.00;99.90;;;;;;5085518;28;20074;-71
2022/07/22 07:03:25;;;;;;;17.88;7.75;;;20.00;99.90;;;;;;5085106;28;20017;-71
2022/07/22 07:05:51;;;;;;;15.07;7.57;;;20.00;99.90;;;;;;5087612;28;20039;-71
2022/07/22 07:08:17;;;;;;;16.00;8.00;;;19.90;99.90;;;;;;5084964;28;20020;-71
2022/07/22 07:10:42;;;;;;;17.55;7.97;;;19.90;99.90;;;;;;5085584;28;20039;-71
2022/07/22 07:13:09;;;;;;;12.07;6.85;;;19.90;99.90;;;;;;5081402;28;20059;-71
2022/07/22 07:15:34;;;;;;;15.35;6.65;;;20.00;99.90;;;;;;5090329;28;20026;-70
2022/07/22 07:18:00;;;;;;;13.00;6.47;;;20.00;99.90;;;;;;5083541;28;20107;-70
2022/07/22 07:20:26;;;;;;;14.52;6.70;;;19.90;99.90;;;;;;5082024;28;20083;-72
2022/07/22 07:22:52;;;;;;;9.65;5.53;;;20.00;99.90;;;;;;5077424;28;20099;-72
2022/07/22 07:25:18;;;;;;;8.15;4.90;;;20.00;99.90;;;;;;5083642;28;20027;-74
2022/07/22 07:27:43;;;;;;;9.65;4.97;;;20.30;99.90;;;;;;5084464;28;20059;-73
2022/07/22 07:30:10;;;;;;;7.25;4.80;;;20.50;99.90;;;;;;5077469;28;20016;-74
2022/07/22 07:32:37;;;;;;;4.20;2.30;;;20.50;99.90;;;;;;5080688;28;20532;-73
2022/07/22 07:35:04;;;;;;;12.85;3.58;;;20.50;99.90;;;;;;5080928;28;20020;-75
2022/07/22 07:37:30;;;;;;;6.90;2.90;;;20.50;99.90;;;;;;5087914;28;20056;-75
2022/07/22 07:39:57;;;;;;;13.25;3.70;;;20.50;99.90;;;;;;5083194;28;20059;-74
2022/07/22 07:42:23;;;;;;;6.32;3.30;;;20.50;99.90;;;;;;5086071;28;20028;-75
2022/07/22 07:44:48;;;;;;;5.68;2.78;;;20.50;99.90;;;;;;5076787;28;20125;-75
2022/07/22 07:47:17;;;;;;;5.88;2.67;;;20.50;99.90;;;;;;5086692;28;20044;-75
2022/07/22 07:49:44;;;;;;;6.03;2.55;;;20.50;99.90;;;;;;5084739;28;20024;-75
2022/07/22 07:52:10;;;;;;;6.97;2.72;;;20.60;99.90;;;;;;5086457;28;20024;-75
2022/07/22 07:54:35;;;;;;;7.32;2.88;;;20.50;99.90;;;;;;5078881;28;20036;-75
2022/07/22 07:57:01;;;;;;;6.22;2.97;;;20.50;99.90;;;;;;5082647;28;20044;-74
2022/07/22 07:59:27;;;;;;;7.88;2.53;;;20.60;99.90;;;;;;5086463;28;20389;-73
2022/07/22 08:01:52;;;;;;;5.40;2.78;;;20.70;99.90;;;;;;5088799;28;20021;-74
2022/07/22 08:04:18;;;;;;;5.25;3.00;;;20.80;99.90;;;;;;5084286;28;20218;-74
2022/07/22 08:06:44;;;;;;;5.32;2.10;;;21.10;99.90;;;;;;5090293;28;20032;-74
2022/07/22 08:09:10;;;;;;;8.15;2.25;;;21.20;99.90;;;;;;5084851;28;20024;-74
2022/07/22 08:11:36;;;;;;;3.17;2.05;;;21.30;99.90;;;;;;5091796;28;20049;-74
2022/07/22 08:14:01;;;;;;;2.50;1.77;;;21.50;99.90;;;;;;5080310;28;20092;-75
2022/07/22 08:16:27;;;;;;;7.30;2.22;;;21.70;99.90;;;;;;5081477;28;20032;-74
2022/07/22 08:18:52;;;;;;;2.42;2.05;;;21.60;99.90;;;;;;5085680;28;20016;-75
2022/07/22 08:21:18;;;;;;;7.80;2.60;;;21.60;99.90;;;;;;5089252;28;20024;-75
2022/07/22 08:23:44;;;;;;;6.68;2.30;;;21.60;99.90;;;;;;5088160;28;20441;-74
2022/07/22 08:26:10;;;;;;;5.53;2.20;;;21.50;99.90;;;;;;5089681;28;20115;-74
2022/07/22 08:28:35;;;;;;;3.70;2.08;;;21.50;99.90;;;;;;5087487;28;20442;-75
2022/07/22 08:31:01;;;;;;;4.50;2.47;;;21.50;99.90;;;;;;5080304;28;20035;-74
2022/07/22 08:33:27;;;;;;;6.63;2.30;;;21.50;99.90;;;;;;5088860;28;20054;-74
2022/07/22 08:35:52;;;;;;;5.03;2.40;;;21.50;99.90;;;;;;5084395;28;20537;-74
2022/07/22 08:38:18;;;;;;;5.00;2.50;;;21.60;99.90;;;;;;5091484;28;20020;-74
2022/07/22 08:40:44;;;;;;;4.97;2.10;;;21.70;99.90;;;;;;5084125;28;20058;-74
2022/07/22 08:43:09;;;;;;;6.75;2.63;;;21.70;99.90;;;;;;5084933;28;20031;-75
2022/07/22 08:45:35;;;;;;;6.22;2.60;;;21.80;99.90;;;;;;5085410;28;20056;-75
2022/07/22 08:48:02;;;;;;;2.72;2.17;;;22.00;99.90;;;;;;5089676;28;20476;-74
2022/07/22 08:50:30;;;;;;;7.38;2.28;;;22.20;99.90;;;;;;5087902;28;20024;-75
2022/07/22 08:52:56;;;;;;;6.40;2.50;;;22.40;99.90;;;;;;5093824;28;20059;-74
2022/07/22 08:55:22;;;;;;;4.68;2.42;;;22.30;99.90;;;;;;5087021;28;20035;-74
2022/07/22 08:57:49;;;;;;;8.10;2.40;;;22.10;99.90;;;;;;5084219;28;20381;-74
2022/07/22 09:00:20;;;;;;;6.65;2.13;;;22.10;99.90;;;;;;5089246;28;20193;-74
2022/07/22 09:02:46;;;;;;;6.70;2.55;;;21.90;99.90;;;;;;5087774;28;20028;-74
2022/07/22 09:05:15;;;;;;;7.15;3.00;;;21.90;99.90;;;;;;5083048;28;20657;-74
2022/07/22 09:07:43;;;;;;;6.05;2.35;;;21.90;99.90;;;;;;5088950;28;20024;-74
2022/07/22 09:10:11;;;;;;;5.05;2.40;;;22.00;99.90;;;;;;5084585;28;20023;-74
2022/07/22 09:12:55;;;;;;;5.15;2.40;;;22.10;99.90;;;;;;5084590;28;20412;-74
2022/07/22 09:15:33;;;;;;;4.28;2.80;;;22.00;99.90;;;;;;5087774;28;20020;-74
2022/07/22 09:17:59;;;;;;;8.15;2.53;;;22.00;99.90;;;;;;5089209;28;20445;-74
2022/07/22 09:20:26;;;;;;;3.55;2.38;;;22.00;99.90;;;;;;5087536;28;20160;-75
2022/07/22 09:22:52;;;;;;;4.68;2.45;;;22.10;99.90;;;;;;5086980;28;20067;-73
2022/07/22 09:25:21;;;;;;;5.22;2.60;;;22.30;99.90;;;;;;5087426;28;20036;-74
2022/07/22 09:27:47;;;;;;;4.22;2.50;;;22.50;99.90;;;;;;5089334;28;20032;-74
2022/07/22 09:30:22;;;;;;;9.88;2.70;;;22.60;99.90;;;;;;5087459;28;20030;-74
2022/07/22 09:32:48;;;;;;;3.97;2.55;;;22.80;99.90;;;;;;5080402;28;20058;-75
2022/07/22 09:35:15;;;;;;;5.53;2.70;;;22.80;99.90;;;;;;5080445;28;20028;-74
2022/07/22 09:37:58;;;;;;;4.43;2.33;;;23.00;99.90;;;;;;5086157;28;20060;-74
2022/07/22 09:40:26;;;;;;;4.05;2.42;;;23.00;99.90;;;;;;5091901;28;20099;-75
2022/07/22 09:42:53;;;;;;;10.32;2.20;;;23.20;99.90;;;;;;5089767;28;20462;-75
2022/07/22 09:45:20;;;;;;;6.70;2.70;;;23.40;99.90;;;;;;5088067;28;20415;-74
2022/07/22 09:47:46;;;;;;;6.15;2.17;;;23.40;99.90;;;;;;5083416;28;20023;-73
2022/07/22 09:50:21;;;;;;;3.85;2.38;;;23.60;99.90;;;;;;5085455;28;20024;-74
2022/07/22 09:52:48;;;;;;;6.85;2.33;;;23.50;99.90;;;;;;5079300;28;20108;-73
2022/07/22 09:55:15;;;;;;;4.15;2.25;;;23.60;99.90;;;;;;5079854;28;20040;-74
2022/07/22 09:57:42;;;;;;;2.67;2.35;;;23.40;99.90;;;;;;5086596;28;20032;-74
2022/07/22 10:00:09;;;;;;;4.38;2.60;;;23.30;99.90;;;;;;5079910;28;20017;-73
2022/07/22 10:02:44;;;;;;;5.78;2.53;;;23.10;99.90;;;;;;5084581;28;20024;-74
2022/07/22 10:05:12;;;;;;;5.88;2.38;;;23.00;99.90;;;;;;5080293;28;20056;-73
2022/07/22 10:07:44;;;;;;;2.65;2.45;;;22.60;99.90;;;;;;5087019;28;20033;-74
2022/07/22 10:10:12;;;;;;;4.65;2.38;;;22.60;99.90;;;;;;5083784;28;20503;-73
2022/07/22 10:12:39;;;;;;;4.07;2.63;;;22.90;99.90;;;;;;5086579;28;20415;-73
2022/07/22 10:15:07;;;;;;;5.35;2.50;;;23.00;99.90;;;;;;5078757;28;20020;-70
2022/07/22 10:17:35;;;;;;;5.20;2.35;;;23.20;99.90;;;;;;5084627;28;20527;-74
2022/07/22 10:20:02;;;;;;;3.33;2.47;;;23.80;99.90;;;;;;5085564;28;20422;-74
2022/07/22 10:22:41;;;;;;;4.18;2.15;;;24.20;99.90;;;;;;5086579;28;20013;-74
2022/07/22 10:25:08;;;;;;;4.82;3.08;;;24.50;99.90;;;;;;5080073;28;20032;-73
2022/07/22 10:27:47;;;;;;;5.22;2.63;;;24.70;99.90;;;;;;5091687;28;20556;-73
2022/07/22 10:30:14;;;;;;;4.28;2.60;;;24.70;99.90;;;;;;5083058;28;20028;-72
2022/07/22 10:32:40;;;;;;;5.55;2.50;;;24.80;99.90;;;;;;5087871;28;20352;-73
2022/07/22 10:35:08;;;;;;;4.43;2.15;;;24.90;99.90;;;;;;5083375;28;20029;-72
2022/07/22 10:37:34;;;;;;;6.35;2.67;;;24.60;99.90;;;;;;5087832;28;20145;-72
2022/07/22 10:40:19;;;;;;;4.55;2.20;;;24.30;99.90;;;;;;5083916;28;20102;-72
2022/07/22 10:42:58;;;;;;;5.22;2.90;;;23.90;99.90;;;;;;5079968;28;20017;-72
2022/07/22 10:45:34;;;;;;;5.22;2.92;;;23.90;99.90;;;;;;5091152;28;20034;-73
2022/07/22 10:48:05;;;;;;;3.83;2.15;;;23.90;99.90;;;;;;5087094;28;20471;-72
2022/07/22 10:50:37;;;;;;;5.65;2.97;;;24.00;99.90;;;;;;5080997;28;20070;-72
2022/07/22 10:53:08;;;;;;;6.75;2.47;;;24.30;99.90;;;;;;5083089;28;20070;-72
2022/07/22 10:55:35;;;;;;;3.33;2.57;;;24.20;99.90;;;;;;5082820;28;20032;-74
2022/07/22 10:58:20;;;;;;;4.88;2.53;;;24.50;99.90;;;;;;5085968;28;20335;-74
2022/07/22 11:00:46;;;;;;;5.65;3.10;;;24.80;99.90;;;;;;5085485;28;20039;-75
2022/07/22 11:03:12;;;;;;;4.25;2.63;;;25.10;99.90;;;;;;5083752;28;20016;-74
2022/07/22 11:05:38;;;;;;;2.65;2.33;;;25.30;99.90;;;;;;5086768;28;20451;-74
2022/07/22 11:08:09;;;;;;;3.33;2.72;;;25.30;99.90;;;;;;5085119;28;20036;-74
2022/07/22 11:10:35;;;;;;;4.20;3.03;;;25.30;99.90;;;;;;5086215;28;20141;-74
2022/07/22 11:13:00;;;;;;;6.00;2.78;;;25.60;99.90;;;;;;5079555;28;20501;-74
2022/07/22 11:15:27;;;;;;;4.70;3.00;;;25.50;99.90;;;;;;5084742;28;20021;-74
2022/07/22 11:17:57;;;;;;;5.53;2.55;;;25.20;99.90;;;;;;5086967;28;20024;-73
2022/07/22 11:20:23;;;;;;;10.25;2.28;;;24.80;99.90;;;;;;5082573;28;20466;-73
2022/07/22 11:22:49;;;;;;;5.85;2.42;;;24.70;99.90;;;;;;5084948;28;20016;-73
2022/07/22 11:25:16;;;;;;;4.65;2.40;;;24.80;99.90;;;;;;5085865;28;20028;-73
2022/07/22 11:27:52;;;;;;;4.85;2.97;;;25.30;99.90;;;;;;5090021;28;20036;-73
2022/07/22 11:30:17;;;;;;;5.10;2.17;;;25.60;99.10;;;;;;5088888;28;20034;-72
2022/07/22 11:32:43;;;;;;;3.00;2.33;;;25.80;99.50;;;;;;5083265;28;20024;-72
2022/07/22 11:35:12;;;;;;;5.88;2.45;;;25.90;99.90;;;;;;5081021;28;20025;-72
2022/07/22 11:37:38;;;;;;;4.10;2.63;;;26.00;99.70;;;;;;5085958;28;20051;-73
2022/07/22 11:40:07;;;;;;;5.25;2.67;;;26.10;99.80;;;;;;5089119;28;20059;-73
2022/07/22 11:42:32;;;;;;;9.10;2.70;;;26.20;99.90;;;;;;5084842;28;20112;-73
2022/07/22 11:44:59;;;;;;;6.05;2.55;;;26.10;99.40;;;;;;5084343;28;20107;-73
2022/07/22 11:47:24;;;;;;;3.85;2.50;;;26.00;99.70;;;;;;5087375;28;20043;-74
2022/07/22 11:49:50;;;;;;;2.75;2.33;;;25.70;99.90;;;;;;5080683;28;20032;-73
2022/07/22 11:52:16;;;;;;;2.65;2.17;;;25.40;99.90;;;;;;5086936;28;20077;-74
2022/07/22 11:54:43;;;;;;;3.65;2.05;;;25.30;99.90;;;;;;5083896;28;20044;-74
2022/07/22 11:57:09;;;;;;;5.03;2.17;;;25.50;99.90;;;;;;5085584;28;20037;-73
2022/07/22 11:59:35;;;;;;;3.95;2.55;;;25.60;99.90;;;;;;5081003;28;20066;-73
2022/07/22 12:02:03;;;;;;;4.43;2.67;;;25.70;99.90;;;;;;5080477;28;20020;-73
2022/07/22 12:04:30;;;;;;;4.38;2.33;;;25.70;99.70;;;;;;5090567;28;20072;-73
2022/07/22 12:06:58;;;;;;;7.43;3.08;;;25.70;99.90;;;;;;5079805;28;20476;-73
2022/07/22 12:09:28;;;;;;;4.90;2.38;;;25.70;99.90;;;;;;5087637;28;20066;-73
2022/07/22 12:11:57;;;;;;;7.25;3.17;;;25.50;99.90;;;;;;5088822;28;20051;-74
2022/07/22 12:14:26;;;;;;;5.15;2.33;;;25.60;99.90;;;;;;5079451;28;20365;-73
2022/07/22 12:17:00;;;;;;;6.65;3.30;;;25.50;99.90;;;;;;5079879;28;20032;-72
2022/07/22 12:19:29;;;;;;;5.70;2.78;;;25.50;98.10;;;;;;5080231;28;20029;-72
2022/07/22 12:22:15;;;;;;;2.90;2.50;;;25.50;99.80;;;;;;5083979;28;20054;-72
2022/07/22 12:24:44;;;;;;;6.68;2.83;;;25.70;99.00;;;;;;5082188;28;20021;-71
2022/07/22 12:27:15;;;;;;;7.88;2.92;;;25.70;99.90;;;;;;5077682;28;20029;-72
2022/07/22 12:29:40;;;;;;;3.90;2.42;;;25.40;99.80;;;;;;5088168;28;20465;-72
2022/07/22 12:32:10;;;;;;;8.38;2.67;;;25.70;99.90;;;;;;5082277;28;20028;-72
2022/07/22 12:34:44;;;;;;;5.70;2.80;;;25.90;99.90;;;;;;5077685;28;20024;-73